Overview Statistics Trail Chart Weather Telemetry Raw packets
 

This is the latest recevied weather packets stored in our database for station/object N9BLE. If no packets are shown the sender has not sent any weather packets the latest 10 day(s).

<< 105 106 107 108 109 110 111 >>
Time Temp. Humidity Pressure Rain* Wind** Luminosity Snow
1777210853 7.78° C 98% 1021.8 hPa 0 mm - 89 W/m² -
1777210551 7.78° C 98% 1022 hPa 0 mm - 103 W/m² -
1777210249 7.78° C 98% 1022 hPa 0 mm - 95 W/m² -
1777209944 7.78° C 98% 1022 hPa 0 mm - 99 W/m² -
1777209640 7.78° C 98% 1022 hPa 0 mm - 97 W/m² -
1777209336 7.78° C 98% 1021.9 hPa 0 mm - 92 W/m² -
1777209033 7.78° C 98% 1021.9 hPa 0 mm - 83 W/m² -
1777208729 7.78° C 98% 1021.8 hPa 0 mm - 78 W/m² -
1777208426 7.78° C 98% 1021.8 hPa 0 mm - 81 W/m² -
1777208123 7.78° C 98% 1021.7 hPa 0 mm - 66 W/m² -
1777207817 7.78° C 98% 1021.8 hPa 0 mm - 67 W/m² -
1777207518 7.78° C 98% 1021.6 hPa 0 mm - 65 W/m² -
1777207213 7.22° C 98% 1021.6 hPa 0 mm - 53 W/m² -
1777206909 7.78° C 98% 1021.7 hPa 0 mm - 58 W/m² -
1777206604 7.22° C 97% 1021.7 hPa 0 mm - 54 W/m² -
1777206299 7.78° C 97% 1021.6 hPa 0 mm - 49 W/m² -
1777205994 7.78° C 97% 1021.7 hPa 0 mm - 47 W/m² -
1777205690 7.22° C 97% 1021.6 hPa 0 mm - 36 W/m² -
1777205388 7.22° C 97% 1021.6 hPa 0 mm - 36 W/m² -
1777205083 7.22° C 96% 1021.4 hPa 0 mm - 33 W/m² -
1777204779 7.22° C 96% 1021.3 hPa 0 mm - 32 W/m² -
1777204474 7.22° C 95% 1021.3 hPa 0 mm - 31 W/m² -
1777204171 7.22° C 95% 1021.3 hPa 0 mm - 27 W/m² -
1777203866 7.22° C 95% 1021.3 hPa 0 mm - 23 W/m² -
1777203561 7.22° C 96% 1021.3 hPa 0 mm - 19 W/m² -

* Rain latest hour (hover to see other rain measurements)
** Current wind speed in m/s (hover to see current wind gust speed)